Time;durP1;ratioP1;P1;durP2;ratioP2;P2;SDS_P1;SDS_P2;PMS_P1;PMS_P2;Temp;Humidity;BMP_temperature;BMP_pressure;BME280_temperature;BME280_humidity;BME280_pressure;Samples;Min_cycle;Max_cycle;Signal;HPM_P1;HPM_P2
2020/12/16 00:00:43;;;;;;;7.20;3.40;;;9.00;73.30;;;;;;4935628;28;80103;-74
2020/12/16 00:03:15;;;;;;;11.10;3.92;;;9.00;73.40;;;;;;4985372;28;80992;-74
2020/12/16 00:06:18;;;;;;;9.07;3.13;;;8.90;73.40;;;;;;4973056;28;80852;-74
2020/12/16 00:09:04;;;;;;;9.00;2.80;;;9.00;73.30;;;;;;5019648;28;81699;-74
2020/12/16 00:11:43;;;;;;;10.88;3.38;;;9.00;73.30;;;;;;5047849;28;80789;-74
2020/12/16 00:17:30;;;;;;;4.40;2.30;;;9.00;73.10;;;;;;4965556;28;80531;-73
2020/12/16 00:20:03;;;;;;;12.50;2.88;;;9.00;73.00;;;;;;4965421;28;80919;-74
2020/12/16 00:22:46;;;;;;;8.18;2.97;;;9.00;73.00;;;;;;4960640;28;80904;-74
2020/12/16 00:25:45;;;;;;;6.38;2.58;;;8.90;73.10;;;;;;4953808;28;81136;-75
2020/12/16 00:28:50;;;;;;;9.18;3.25;;;8.90;73.30;;;;;;4962871;28;80309;-75
2020/12/16 00:31:50;;;;;;;10.88;3.22;;;8.90;73.20;;;;;;4981937;28;79838;-73
2020/12/16 00:34:41;;;;;;;6.97;2.58;;;8.90;73.20;;;;;;5047217;28;81021;-72
2020/12/16 00:37:21;;;;;;;9.35;3.42;;;8.90;73.30;;;;;;5046204;28;81087;-72
2020/12/16 00:40:03;;;;;;;8.95;3.30;;;8.90;73.30;;;;;;5047231;28;79820;-73
2020/12/16 00:43:05;;;;;;;13.05;3.22;;;8.90;73.30;;;;;;5046674;28;79858;-72
2020/12/16 00:45:43;;;;;;;10.85;3.03;;;8.90;73.20;;;;;;5046104;28;80754;-72
2020/12/16 00:48:58;;;;;;;7.13;3.20;;;9.00;73.00;;;;;;5045740;28;80596;-72
2020/12/16 00:51:31;;;;;;;11.55;3.28;;;9.10;72.70;;;;;;4998446;28;80689;-72
2020/12/16 00:54:30;;;;;;;10.05;3.20;;;9.00;72.80;;;;;;5029437;28;80856;-72
2020/12/16 00:57:01;;;;;;;7.38;3.22;;;9.10;72.60;;;;;;5008050;28;82125;-72
2020/12/16 00:59:35;;;;;;;9.07;3.92;;;9.10;72.60;;;;;;5046726;28;81081;-71
2020/12/16 01:02:30;;;;;;;7.70;3.30;;;9.20;72.60;;;;;;5043128;28;80078;-72
2020/12/16 01:05:23;;;;;;;8.18;3.20;;;9.20;72.40;;;;;;5032957;28;79906;-72
2020/12/16 01:08:21;;;;;;;8.45;4.00;;;9.20;72.30;;;;;;5046116;28;79956;-72
2020/12/16 01:11:03;;;;;;;11.55;4.75;;;9.20;72.30;;;;;;5003601;28;80790;-74
2020/12/16 01:14:13;;;;;;;8.10;3.90;;;9.20;72.20;;;;;;5004594;28;80152;-74
2020/12/16 01:16:58;;;;;;;8.63;3.05;;;9.20;72.20;;;;;;4964350;28;79871;-73
2020/12/16 01:19:46;;;;;;;7.82;3.00;;;9.20;72.20;;;;;;5001387;28;80020;-73
2020/12/16 01:22:58;;;;;;;6.63;3.17;;;9.20;72.30;;;;;;5003826;28;79833;-74
2020/12/16 01:25:34;;;;;;;8.15;3.00;;;9.20;72.20;;;;;;5000472;28;80690;-73
2020/12/16 01:28:15;;;;;;;9.65;3.17;;;9.20;72.20;;;;;;4988842;28;80603;-74
2020/12/16 01:31:19;;;;;;;8.68;3.45;;;9.30;72.10;;;;;;4983155;28;82612;-74
2020/12/16 01:33:53;;;;;;;6.70;3.17;;;9.30;71.80;;;;;;4972864;28;80737;-74
2020/12/16 01:36:36;;;;;;;8.10;3.35;;;9.30;71.80;;;;;;5028215;28;81772;-73
2020/12/16 01:39:35;;;;;;;6.97;3.90;;;9.30;71.70;;;;;;5022744;28;82973;-74
2020/12/16 01:42:08;;;;;;;7.93;3.00;;;9.40;71.50;;;;;;5026449;28;81954;-75
2020/12/16 01:47:55;;;;;;;9.27;3.45;;;9.30;71.50;;;;;;4983314;28;80760;-74
2020/12/16 01:57:05;;;;;;;5.90;3.08;;;9.40;71.30;;;;;;4973952;28;80766;-73
2020/12/16 01:59:52;;;;;;;9.95;3.85;;;9.40;71.20;;;;;;4966770;28;80259;-73
2020/12/16 02:02:58;;;;;;;8.65;3.40;;;9.40;71.00;;;;;;4905168;28;83121;-73
2020/12/16 02:05:27;;;;;;;6.22;3.15;;;9.40;70.80;;;;;;4933077;28;80901;-74
2020/12/16 02:11:15;;;;;;;7.05;2.83;;;9.50;70.70;;;;;;4934187;28;81407;-75
2020/12/16 02:17:33;;;;;;;8.32;3.47;;;9.40;70.70;;;;;;4939985;28;79992;-74
2020/12/16 02:20:27;;;;;;;10.18;3.63;;;9.40;70.60;;;;;;4908573;28;80977;-73
2020/12/16 02:23:28;;;;;;;8.32;3.47;;;9.40;70.60;;;;;;4858523;28;81166;-72
2020/12/16 02:26:25;;;;;;;9.20;3.70;;;9.40;70.70;;;;;;4947527;28;80945;-72
2020/12/16 02:28:56;;;;;;;11.13;5.28;;;9.40;70.70;;;;;;4928781;28;82013;-72
2020/12/16 02:31:33;;;;;;;10.13;4.90;;;9.40;70.60;;;;;;4943426;28;80649;-72
2020/12/16 02:34:13;;;;;;;10.27;4.80;;;9.40;70.30;;;;;;4948137;28;80907;-72
2020/12/16 02:36:48;;;;;;;8.70;3.45;;;9.40;70.20;;;;;;4947433;28;81201;-72
2020/12/16 02:39:32;;;;;;;8.68;3.45;;;9.40;70.20;;;;;;4931042;28;80297;-71
2020/12/16 02:42:39;;;;;;;7.80;2.90;;;9.40;70.00;;;;;;4940507;28;81225;-72
2020/12/16 02:45:29;;;;;;;6.97;3.10;;;9.50;69.80;;;;;;4939408;28;80509;-73
2020/12/16 02:48:13;;;;;;;6.40;2.73;;;9.40;70.00;;;;;;4986089;28;79972;-72
2020/12/16 02:51:14;;;;;;;6.93;2.88;;;9.40;70.10;;;;;;4986328;28;81370;-72
2020/12/16 02:54:02;;;;;;;6.75;3.13;;;9.40;70.00;;;;;;5042892;28;79849;-73
2020/12/16 02:56:34;;;;;;;6.90;2.53;;;9.40;70.10;;;;;;5047775;28;80914;-73
2020/12/16 02:59:02;;;;;;;5.90;2.40;;;9.40;70.00;;;;;;5036391;28;80606;-73
2020/12/16 03:02:10;;;;;;;5.30;2.35;;;9.40;70.00;;;;;;5029234;28;80224;-72
2020/12/16 03:04:45;;;;;;;5.30;2.35;;;9.50;69.80;;;;;;5045058;28;81065;-72
2020/12/16 03:07:43;;;;;;;6.10;2.83;;;9.40;69.90;;;;;;5016785;28;80358;-74
2020/12/16 03:10:51;;;;;;;5.90;2.20;;;9.40;69.80;;;;;;4953175;28;81544;-72
2020/12/16 03:13:22;;;;;;;7.90;2.50;;;9.40;70.00;;;;;;4918981;28;80279;-73
2020/12/16 03:16:17;;;;;;;;;;;;;;;;;;;;;
2020/12/16 03:19:09;;;;;;;5.25;2.50;;;9.40;70.10;;;;;;4963371;28;109310;-75
2020/12/16 03:22:10;;;;;;;6.30;2.92;;;9.40;70.40;;;;;;4967235;28;80859;-74
2020/12/16 03:25:05;;;;;;;5.22;1.50;;;9.30;70.60;;;;;;4949599;28;82644;-73
2020/12/16 03:27:59;;;;;;;5.28;2.00;;;9.20;70.80;;;;;;4941443;28;82640;-75
2020/12/16 03:30:41;;;;;;;6.70;1.92;;;9.20;70.90;;;;;;4966334;28;80894;-72
2020/12/16 03:33:28;;;;;;;4.68;1.75;;;9.00;71.20;;;;;;4960249;28;80739;-75
2020/12/16 03:36:43;;;;;;;5.50;2.47;;;8.90;71.60;;;;;;5041897;28;80716;-74
2020/12/16 03:39:15;;;;;;;6.28;1.88;;;8.90;71.80;;;;;;5036489;28;79843;-74
2020/12/16 03:41:50;;;;;;;7.23;2.60;;;8.80;71.90;;;;;;5029869;28;83603;-74
2020/12/16 03:44:57;;;;;;;7.40;2.15;;;8.80;72.00;;;;;;5047975;28;80148;-73
2020/12/16 03:47:47;;;;;;;4.60;1.60;;;8.70;71.90;;;;;;4945523;28;83294;-73
2020/12/16 03:50:51;;;;;;;7.53;1.92;;;8.70;72.60;;;;;;4965982;28;82195;-72
2020/12/16 03:53:59;;;;;;;3.63;1.75;;;8.70;72.80;;;;;;4940608;28;80582;-75
2020/12/16 03:56:52;;;;;;;4.90;2.45;;;8.60;73.00;;;;;;4965352;28;80911;-72
2020/12/16 04:00:10;;;;;;;10.02;2.80;;;8.60;72.90;;;;;;4958166;28;80469;-75
2020/12/16 04:02:50;;;;;;;7.25;2.17;;;8.60;72.90;;;;;;4938909;28;83081;-74
2020/12/16 04:05:50;;;;;;;10.10;2.80;;;8.50;73.30;;;;;;4946327;28;82533;-74
2020/12/16 04:08:24;;;;;;;5.35;2.28;;;8.60;73.30;;;;;;4916983;28;81342;-74
2020/12/16 04:11:40;;;;;;;11.25;3.28;;;8.60;73.30;;;;;;4965082;28;80248;-74
2020/12/16 04:14:37;;;;;;;10.68;3.30;;;8.60;73.30;;;;;;4957259;28;81455;-74
2020/12/16 04:17:25;;;;;;;9.77;2.67;;;8.70;73.20;;;;;;4946126;28;82988;-74
2020/12/16 04:20:51;;;;;;;6.00;2.35;;;8.70;73.20;;;;;;5029463;28;83656;-74
2020/12/16 04:23:33;;;;;;;7.00;2.00;;;8.80;73.00;;;;;;5028897;28;79996;-74
2020/12/16 04:26:33;;;;;;;5.13;2.05;;;8.80;73.00;;;;;;5046441;28;81235;-74
2020/12/16 04:29:34;;;;;;;8.00;2.65;;;8.80;72.90;;;;;;5034339;28;80325;-72
2020/12/16 04:32:10;;;;;;;5.32;1.88;;;8.90;72.70;;;;;;5026982;28;80802;-73
2020/12/16 04:38:27;;;;;;;6.47;2.20;;;8.90;72.60;;;;;;4983437;28;80882;-75
2020/12/16 04:41:09;;;;;;;7.40;3.13;;;9.00;72.20;;;;;;4906176;28;82636;-74
2020/12/16 04:43:56;;;;;;;6.22;2.55;;;8.90;72.50;;;;;;4974840;28;80025;-74
2020/12/16 04:46:42;;;;;;;;;;;;;;;;;;;;;
2020/12/16 04:49:13;;;;;;;6.57;2.20;;;8.90;72.70;;;;;;4954389;28;111202;-71
2020/12/16 04:52:15;;;;;;;5.70;2.17;;;8.90;72.80;;;;;;4984518;28;81184;-71
2020/12/16 04:55:22;;;;;;;6.40;2.00;;;8.80;73.00;;;;;;4982089;28;80814;-71
2020/12/16 05:01:17;;;;;;;6.28;1.70;;;8.80;73.10;;;;;;4944627;28;80815;-71
2020/12/16 05:04:19;;;;;;;5.00;1.65;;;8.90;72.80;;;;;;4887410;28;81387;-72
2020/12/16 05:06:50;;;;;;;8.00;2.97;;;8.90;72.80;;;;;;4871323;28;79947;-72
2020/12/16 05:09:50;;;;;;;5.57;1.95;;;8.90;72.80;;;;;;4884535;28;80414;-72
2020/12/16 05:12:44;;;;;;;3.88;1.92;;;8.90;72.60;;;;;;4887785;28;80684;-74
2020/12/16 05:15:33;;;;;;;6.53;1.92;;;8.90;72.70;;;;;;4951669;28;80840;-74
2020/12/16 05:19:04;;;;;;;5.95;1.58;;;8.90;72.70;;;;;;4943997;28;81845;-73
2020/12/16 05:21:56;;;;;;;10.18;2.47;;;8.90;72.70;;;;;;4881641;28;80746;-73
2020/12/16 05:24:52;;;;;;;7.22;1.63;;;8.70;73.30;;;;;;4958132;28;80709;-73
2020/12/16 05:27:33;;;;;;;5.43;1.63;;;8.60;73.50;;;;;;4981335;28;82322;-74
2020/12/16 05:30:21;;;;;;;6.88;2.13;;;8.50;73.70;;;;;;5003210;28;81171;-74
2020/12/16 05:33:37;;;;;;;10.45;2.70;;;8.50;73.80;;;;;;5004283;28;81399;-75
2020/12/16 05:36:30;;;;;;;6.72;2.20;;;8.50;73.60;;;;;;5003295;28;80018;-75
2020/12/16 05:39:17;;;;;;;5.18;1.92;;;8.50;73.80;;;;;;5003499;28;79883;-73
2020/12/16 05:42:18;;;;;;;9.82;2.60;;;8.60;73.70;;;;;;5002269;28;81177;-73
2020/12/16 05:44:48;;;;;;;9.02;1.83;;;8.60;73.40;;;;;;4956993;28;81663;-74
2020/12/16 05:47:27;;;;;;;4.82;1.55;;;8.70;73.40;;;;;;5000976;28;80995;-73
2020/12/16 05:50:20;;;;;;;6.50;2.05;;;8.70;73.40;;;;;;4987148;28;80491;-74
2020/12/16 05:53:27;;;;;;;8.70;2.70;;;8.60;73.40;;;;;;4957414;28;80502;-73
2020/12/16 05:56:17;;;;;;;5.97;2.58;;;8.60;73.50;;;;;;5006967;28;80206;-74
2020/12/16 05:59:10;;;;;;;6.00;2.10;;;8.50;73.80;;;;;;5001291;28;80019;-74
2020/12/16 06:01:51;;;;;;;7.50;3.33;;;8.40;74.00;;;;;;4990924;28;82479;-74
2020/12/16 06:04:40;;;;;;;6.53;2.42;;;8.40;74.10;;;;;;5007455;28;80970;-75
2020/12/16 06:07:32;;;;;;;6.45;2.33;;;8.40;74.20;;;;;;4969720;28;80828;-75
2020/12/16 06:10:16;;;;;;;8.15;2.83;;;8.30;74.20;;;;;;5045062;28;79768;-75
2020/12/16 06:13:20;;;;;;;5.40;2.22;;;8.30;74.30;;;;;;5045996;28;80887;-75
2020/12/16 06:15:58;;;;;;;8.25;2.80;;;8.30;74.40;;;;;;5049115;28;81184;-74
2020/12/16 06:18:33;;;;;;;5.45;2.50;;;8.40;74.40;;;;;;5047297;28;80752;-75
2020/12/16 06:21:08;;;;;;;7.80;2.72;;;8.40;74.40;;;;;;5015306;28;81199;-77
2020/12/16 06:24:06;;;;;;;7.13;2.55;;;8.40;74.30;;;;;;5049439;28;80803;-75
2020/12/16 06:27:32;;;;;;;7.72;2.90;;;8.40;74.20;;;;;;5049124;28;80484;-72
2020/12/16 06:30:23;;;;;;;17.05;3.20;;;8.30;74.20;;;;;;5044238;28;80278;-72
2020/12/16 06:33:16;;;;;;;8.68;2.67;;;8.20;74.60;;;;;;5028771;28;82676;-72
2020/12/16 06:40:03;;;;;;;10.63;2.80;;;8.00;74.90;;;;;;4943284;28;80428;-71
2020/12/16 06:42:52;;;;;;;7.05;2.67;;;8.00;74.90;;;;;;5048610;28;80392;-68
2020/12/16 06:45:33;;;;;;;9.80;3.40;;;7.90;75.30;;;;;;5048838;28;80995;-72
2020/12/16 06:48:46;;;;;;;7.80;2.75;;;7.80;75.60;;;;;;5019218;28;82718;-73
2020/12/16 06:51:27;;;;;;;9.05;3.20;;;7.80;75.50;;;;;;5014735;28;84265;-75
2020/12/16 06:54:23;;;;;;;6.55;3.10;;;7.70;75.90;;;;;;4993092;28;81963;-75
2020/12/16 06:57:40;;;;;;;9.75;3.72;;;7.70;76.00;;;;;;5048526;28;81026;-70
2020/12/16 07:00:42;;;;;;;7.93;2.80;;;7.60;76.10;;;;;;4965858;28;82350;-70
2020/12/16 07:03:54;;;;;;;5.38;2.55;;;7.60;76.30;;;;;;5040709;28;80203;-68
2020/12/16 07:06:47;;;;;;;8.90;3.65;;;7.60;76.30;;;;;;5022604;28;83859;-72
2020/12/16 07:09:42;;;;;;;9.87;3.63;;;7.60;76.30;;;;;;5043349;28;79997;-69
2020/12/16 07:12:43;;;;;;;8.20;3.50;;;7.50;76.30;;;;;;4960605;28;80318;-68
2020/12/16 07:15:53;;;;;;;9.70;2.90;;;7.50;76.40;;;;;;4966026;28;80002;-73
2020/12/16 07:19:04;;;;;;;8.02;3.28;;;7.50;76.40;;;;;;4950242;28;80600;-73
2020/12/16 07:21:55;;;;;;;9.23;2.85;;;7.50;76.40;;;;;;4967112;28;81149;-67
2020/12/16 07:24:51;;;;;;;7.50;3.13;;;7.40;76.40;;;;;;4964784;28;80077;-70
2020/12/16 07:27:33;;;;;;;5.63;3.10;;;7.50;76.20;;;;;;4927151;28;81030;-69
2020/12/16 07:30:10;;;;;;;8.75;2.65;;;7.40;76.40;;;;;;4926124;28;80633;-68
2020/12/16 07:33:22;;;;;;;11.32;2.88;;;7.40;76.30;;;;;;4925786;28;80741;-69
2020/12/16 07:36:16;;;;;;;12.18;3.42;;;7.40;76.20;;;;;;4934045;28;80483;-66
2020/12/16 07:39:30;;;;;;;11.27;3.40;;;7.40;76.40;;;;;;4976651;28;82925;-69
2020/12/16 07:42:05;;;;;;;9.20;2.97;;;7.40;76.20;;;;;;4986668;28;80487;-68
2020/12/16 07:45:07;;;;;;;7.47;3.70;;;7.40;76.50;;;;;;5027102;28;80814;-67
2020/12/16 07:48:12;;;;;;;11.50;4.22;;;7.40;76.40;;;;;;5012868;28;80575;-68
2020/12/16 07:51:15;;;;;;;7.15;2.75;;;7.50;76.50;;;;;;4971851;28;80943;-62
2020/12/16 07:53:51;;;;;;;7.80;3.90;;;7.50;76.20;;;;;;5746638;22;83379;-67
2020/12/16 07:56:18;;;;;;;7.75;3.47;;;7.50;76.20;;;;;;5001226;28;82980;-67
2020/12/16 07:58:44;;;;;;;10.15;3.08;;;7.60;76.10;;;;;;5013328;28;80723;-66
2020/12/16 08:01:11;;;;;;;9.73;3.25;;;7.70;75.90;;;;;;5011245;28;80895;-67
2020/12/16 08:03:37;;;;;;;10.70;3.20;;;7.70;75.80;;;;;;5012861;28;81093;-67
2020/12/16 08:06:04;;;;;;;11.25;3.63;;;7.80;75.60;;;;;;5011876;28;81363;-66
2020/12/16 08:08:30;;;;;;;10.23;3.17;;;7.80;75.40;;;;;;4993844;28;82458;-65
2020/12/16 08:10:56;;;;;;;7.50;3.63;;;7.90;75.20;;;;;;5011579;28;81409;-67
2020/12/16 08:13:24;;;;;;;8.77;3.10;;;8.00;75.00;;;;;;4993682;28;81719;-66
2020/12/16 08:15:50;;;;;;;7.55;2.83;;;8.10;74.50;;;;;;4996034;28;81704;-66
2020/12/16 08:18:17;;;;;;;7.00;3.47;;;8.30;74.10;;;;;;4992899;28;81036;-66
2020/12/16 08:20:43;;;;;;;12.05;4.15;;;8.40;73.70;;;;;;5007536;28;81300;-67
2020/12/16 08:23:13;;;;;;;7.72;3.20;;;8.50;73.40;;;;;;5012684;28;81250;-66
2020/12/16 08:25:39;;;;;;;19.08;3.38;;;8.60;72.90;;;;;;5012666;28;82025;-66
2020/12/16 08:28:05;;;;;;;11.65;4.05;;;8.70;72.30;;;;;;5011939;28;81258;-66
2020/12/16 08:30:32;;;;;;;8.13;3.58;;;8.80;72.20;;;;;;5012539;28;80641;-67
2020/12/16 08:33:02;;;;;;;9.70;3.78;;;9.00;71.90;;;;;;5015800;28;81104;-66
2020/12/16 08:35:31;;;;;;;7.70;2.60;;;9.10;71.40;;;;;;5011459;28;81159;-66
2020/12/16 08:38:03;;;;;;;8.75;3.47;;;9.20;71.00;;;;;;5010651;28;81228;-66
2020/12/16 08:40:29;;;;;;;9.48;3.05;;;9.30;70.90;;;;;;5011398;28;81160;-66
2020/12/16 08:42:55;;;;;;;10.23;3.05;;;9.30;70.60;;;;;;5012586;28;81118;-67
2020/12/16 08:45:21;;;;;;;6.55;2.78;;;9.40;70.60;;;;;;5012319;28;80789;-67
2020/12/16 08:47:47;;;;;;;6.63;2.90;;;9.40;70.20;;;;;;5010903;28;82294;-68
2020/12/16 08:50:18;;;;;;;5.72;2.35;;;9.60;69.90;;;;;;5012389;28;81461;-66
2020/12/16 08:52:46;;;;;;;9.88;2.95;;;9.80;69.40;;;;;;5009859;28;81631;-66
2020/12/16 08:55:15;;;;;;;5.53;2.45;;;9.90;69.00;;;;;;4992703;28;84162;-66
2020/12/16 08:58:01;;;;;;;7.90;2.78;;;9.90;69.00;;;;;;4992811;28;83127;-67
2020/12/16 09:00:35;;;;;;;7.65;3.00;;;9.80;68.80;;;;;;5011409;28;81334;-67
2020/12/16 09:03:08;;;;;;;8.93;3.75;;;9.70;69.10;;;;;;4993185;28;82379;-66
2020/12/16 09:05:38;;;;;;;8.43;2.88;;;9.60;69.30;;;;;;5012090;28;81036;-66
2020/12/16 09:08:12;;;;;;;5.40;2.65;;;9.70;69.40;;;;;;5012565;28;81113;-66
2020/12/16 09:10:39;;;;;;;6.10;3.10;;;9.90;68.90;;;;;;5019166;28;82218;-66
2020/12/16 09:13:08;;;;;;;6.10;3.50;;;10.00;68.50;;;;;;5015430;28;81442;-66
2020/12/16 09:15:35;;;;;;;8.20;2.90;;;10.40;67.80;;;;;;5011374;28;81684;-67
2020/12/16 09:18:01;;;;;;;5.97;2.88;;;10.90;66.60;;;;;;5011626;28;81593;-66
2020/12/16 09:20:28;;;;;;;7.60;2.90;;;11.30;65.20;;;;;;5011951;28;82284;-67
2020/12/16 09:22:54;;;;;;;11.68;4.05;;;11.60;64.20;;;;;;4993923;28;83270;-67
2020/12/16 09:25:20;;;;;;;4.90;2.28;;;11.90;63.20;;;;;;4996958;28;82957;-65
2020/12/16 09:27:56;;;;;;;8.25;3.85;;;11.80;62.70;;;;;;5015624;28;80314;-67
2020/12/16 09:30:30;;;;;;;9.23;3.47;;;11.80;62.60;;;;;;4997126;28;83668;-66
2020/12/16 09:32:57;;;;;;;7.63;2.80;;;11.90;62.20;;;;;;5015346;28;81571;-66
2020/12/16 09:35:24;;;;;;;20.95;2.95;;;11.90;62.10;;;;;;4996627;28;83095;-65
2020/12/16 09:37:51;;;;;;;7.45;2.22;;;11.70;62.70;;;;;;4997331;28;82637;-66
2020/12/16 09:40:22;;;;;;;17.52;2.65;;;11.60;63.00;;;;;;4996943;28;82419;-65
2020/12/16 09:42:55;;;;;;;6.03;2.20;;;11.50;63.30;;;;;;5014482;28;80726;-65
2020/12/16 09:45:21;;;;;;;10.60;2.83;;;11.50;63.30;;;;;;4996596;28;84560;-65
2020/12/16 09:47:49;;;;;;;10.18;2.60;;;11.60;63.40;;;;;;5013662;28;81300;-65
2020/12/16 09:50:17;;;;;;;8.63;2.70;;;11.40;63.40;;;;;;5013598;28;81293;-65
2020/12/16 09:52:43;;;;;;;10.65;2.95;;;11.40;63.90;;;;;;5014582;28;80588;-65
2020/12/16 09:55:20;;;;;;;11.80;3.20;;;11.30;64.10;;;;;;5014887;28;81163;-65
2020/12/16 09:58:09;;;;;;;7.80;2.35;;;11.30;64.30;;;;;;5014847;28;80992;-66
2020/12/16 10:00:37;;;;;;;12.70;2.58;;;11.20;64.50;;;;;;5014948;28;81647;-67
2020/12/16 10:03:08;;;;;;;23.77;3.25;;;11.20;64.50;;;;;;5014675;28;81949;-64
2020/12/16 10:05:38;;;;;;;6.47;2.60;;;11.30;64.30;;;;;;5013921;28;81358;-66
2020/12/16 10:08:09;;;;;;;8.02;3.60;;;11.40;64.00;;;;;;5014334;28;80273;-65
2020/12/16 10:10:37;;;;;;;5.63;2.85;;;11.40;64.00;;;;;;4995263;28;82194;-66
2020/12/16 10:13:03;;;;;;;8.10;3.40;;;11.50;64.20;;;;;;4996941;28;81444;-63
2020/12/16 10:15:28;;;;;;;8.65;3.53;;;11.50;63.80;;;;;;5012111;28;81855;-65
2020/12/16 10:17:55;;;;;;;8.65;3.72;;;11.60;63.70;;;;;;5012639;28;81054;-66
2020/12/16 10:20:21;;;;;;;8.50;2.80;;;11.80;63.50;;;;;;4996110;28;84124;-64
2020/12/16 10:22:47;;;;;;;12.25;3.63;;;12.00;62.80;;;;;;4996231;28;81165;-66
2020/12/16 10:25:13;;;;;;;9.52;3.10;;;12.20;62.20;;;;;;5013911;28;82503;-66
2020/12/16 10:27:39;;;;;;;8.35;4.13;;;12.30;61.80;;;;;;5013682;28;81246;-64
2020/12/16 10:30:06;;;;;;;10.38;3.00;;;12.20;62.00;;;;;;5012509;28;82138;-66
2020/12/16 10:32:34;;;;;;;7.03;3.55;;;12.00;62.50;;;;;;5012794;28;81445;-68
2020/12/16 10:35:00;;;;;;;19.45;4.72;;;11.90;62.80;;;;;;5013348;28;81128;-64
2020/12/16 10:37:27;;;;;;;9.85;3.05;;;11.90;63.10;;;;;;4994857;28;82152;-67
2020/12/16 10:39:53;;;;;;;8.50;2.95;;;11.80;63.10;;;;;;5014108;28;80619;-67
2020/12/16 10:42:21;;;;;;;8.60;3.08;;;11.80;63.20;;;;;;5014135;28;81747;-66
2020/12/16 10:44:47;;;;;;;9.40;3.20;;;11.70;63.70;;;;;;4995347;28;83451;-66
2020/12/16 10:47:13;;;;;;;7.53;2.65;;;11.70;63.80;;;;;;5013915;28;81763;-66
2020/12/16 10:49:40;;;;;;;15.02;3.60;;;11.60;63.80;;;;;;4993907;28;83368;-66
2020/12/16 10:52:07;;;;;;;4.95;2.67;;;11.70;63.60;;;;;;5008417;28;82517;-66
2020/12/16 10:54:34;;;;;;;8.95;3.63;;;11.70;63.60;;;;;;5011739;28;82120;-67
2020/12/16 10:57:00;;;;;;;7.60;3.00;;;11.90;63.20;;;;;;5017542;28;81779;-68
2020/12/16 10:59:28;;;;;;;11.77;3.35;;;11.90;63.10;;;;;;5010138;28;81688;-66
2020/12/16 11:01:54;;;;;;;10.80;3.90;;;11.90;62.90;;;;;;5011771;28;81357;-67
2020/12/16 11:04:20;;;;;;;7.53;3.05;;;12.00;62.80;;;;;;5012841;28;80901;-66
2020/12/16 11:06:48;;;;;;;10.65;3.38;;;12.10;62.70;;;;;;5006640;28;81599;-66
2020/12/16 11:09:15;;;;;;;8.80;2.72;;;12.10;62.70;;;;;;5016376;28;81534;-66
2020/12/16 11:11:51;;;;;;;8.57;3.15;;;12.20;62.50;;;;;;4996966;28;81229;-66
2020/12/16 11:14:18;;;;;;;13.07;4.85;;;12.30;62.20;;;;;;5006409;28;82606;-66
2020/12/16 11:16:44;;;;;;;9.70;2.80;;;12.30;62.10;;;;;;4992735;28;82244;-66
2020/12/16 11:19:12;;;;;;;10.10;4.63;;;12.30;62.10;;;;;;4988927;28;83381;-68
2020/12/16 11:21:40;;;;;;;10.07;3.20;;;12.40;62.10;;;;;;5008008;28;81624;-67
2020/12/16 11:24:07;;;;;;;7.22;3.53;;;12.40;61.90;;;;;;5009528;28;82852;-68
2020/12/16 11:26:41;;;;;;;7.05;2.67;;;12.50;62.00;;;;;;5011163;28;80927;-64
2020/12/16 11:29:08;;;;;;;8.00;3.42;;;12.60;61.60;;;;;;5009476;28;81302;-63
2020/12/16 11:31:47;;;;;;;4.82;2.20;;;12.70;61.40;;;;;;5011256;28;81540;-67
2020/12/16 11:34:15;;;;;;;10.00;2.22;;;12.70;61.50;;;;;;5006379;28;81186;-67
2020/12/16 11:36:43;;;;;;;4.38;2.08;;;12.70;61.40;;;;;;5008194;28;80829;-67
2020/12/16 11:39:10;;;;;;;7.95;2.10;;;12.50;61.50;;;;;;5010460;28;81388;-67
2020/12/16 11:41:40;;;;;;;7.20;3.05;;;12.40;62.10;;;;;;5007287;28;82251;-67
2020/12/16 11:44:06;;;;;;;5.90;2.55;;;12.40;62.50;;;;;;4995127;28;81207;-67
2020/12/16 11:46:32;;;;;;;7.63;2.75;;;12.40;62.90;;;;;;5012736;28;81176;-67
2020/12/16 11:48:58;;;;;;;6.80;2.25;;;12.40;62.70;;;;;;5015150;28;81237;-67
2020/12/16 11:51:25;;;;;;;4.72;1.70;;;12.50;62.30;;;;;;5012401;28;81328;-67
2020/12/16 11:53:51;;;;;;;7.38;2.10;;;12.60;61.70;;;;;;5014342;28;81209;-67
2020/12/16 11:56:17;;;;;;;4.13;1.83;;;12.80;61.40;;;;;;5010006;28;81604;-66
2020/12/16 11:58:45;;;;;;;8.88;2.00;;;12.90;61.00;;;;;;5010545;28;81403;-66
2020/12/16 12:01:12;;;;;;;6.40;2.20;;;13.00;60.90;;;;;;5009673;28;81644;-66
2020/12/16 12:03:38;;;;;;;9.52;2.50;;;12.90;60.80;;;;;;4992269;28;81347;-68
2020/12/16 12:06:09;;;;;;;6.57;2.13;;;12.90;61.10;;;;;;5007049;28;81504;-67
2020/12/16 12:08:35;;;;;;;6.57;1.80;;;12.90;61.20;;;;;;5009187;28;81131;-68
2020/12/16 12:11:00;;;;;;;6.28;2.22;;;12.90;61.20;;;;;;5010954;28;81374;-66
2020/12/16 12:13:26;;;;;;;6.18;2.40;;;12.90;61.30;;;;;;4975382;28;82943;-66
2020/12/16 12:15:52;;;;;;;7.25;2.00;;;12.90;61.40;;;;;;4992443;28;82030;-68
2020/12/16 12:18:18;;;;;;;13.13;2.00;;;12.90;61.30;;;;;;5012336;28;81433;-67
2020/12/16 12:20:44;;;;;;;7.68;2.53;;;12.90;61.40;;;;;;5008760;28;81612;-68
2020/12/16 12:23:09;;;;;;;6.72;2.63;;;12.90;61.30;;;;;;5011230;28;81312;-67
2020/12/16 12:25:35;;;;;;;5.60;2.05;;;12.90;61.30;;;;;;5008870;28;81225;-65
2020/12/16 12:28:01;;;;;;;7.03;1.67;;;13.00;60.70;;;;;;4991870;28;82925;-65
2020/12/16 12:30:27;;;;;;;4.60;1.42;;;13.20;59.70;;;;;;4989699;28;81605;-66
2020/12/16 12:32:53;;;;;;;4.85;1.70;;;13.30;59.00;;;;;;5009771;28;80774;-65
2020/12/16 12:35:19;;;;;;;6.60;1.85;;;13.30;58.40;;;;;;5009800;28;81281;-64
2020/12/16 12:37:45;;;;;;;5.35;2.25;;;13.20;58.10;;;;;;5009560;28;81897;-67
2020/12/16 12:40:10;;;;;;;4.53;1.23;;;13.10;58.20;;;;;;4994671;28;83116;-68
2020/12/16 12:42:36;;;;;;;3.55;1.20;;;13.10;58.30;;;;;;5011435;28;81083;-68
2020/12/16 12:45:06;;;;;;;6.65;2.40;;;13.20;58.00;;;;;;4993927;28;82859;-66
2020/12/16 12:47:31;;;;;;;4.50;1.67;;;13.30;57.80;;;;;;5009109;28;81071;-67
2020/12/16 12:49:57;;;;;;;5.18;1.40;;;13.40;57.40;;;;;;5015410;28;81515;-67
2020/12/16 12:52:23;;;;;;;5.22;1.90;;;13.50;57.10;;;;;;4994407;28;83863;-67
2020/12/16 12:54:49;;;;;;;5.40;1.50;;;13.50;57.10;;;;;;5007251;28;81034;-66
2020/12/16 12:57:16;;;;;;;4.53;1.75;;;13.50;56.90;;;;;;5008175;28;81619;-66
2020/12/16 12:59:42;;;;;;;6.75;2.63;;;13.60;56.70;;;;;;5011151;28;81864;-65
2020/12/16 13:02:08;;;;;;;5.05;2.10;;;13.60;56.80;;;;;;5008273;28;81542;-66
2020/12/16 13:04:34;;;;;;;4.35;2.08;;;13.50;56.90;;;;;;5008600;28;81381;-66
2020/12/16 13:06:59;;;;;;;4.97;2.20;;;13.40;57.60;;;;;;4990365;28;82583;-65
2020/12/16 13:09:25;;;;;;;3.40;1.80;;;13.20;57.80;;;;;;5007959;28;81455;-66
2020/12/16 13:11:51;;;;;;;4.07;1.92;;;13.00;58.20;;;;;;4988985;28;81016;-66
2020/12/16 13:14:17;;;;;;;3.72;1.10;;;13.00;58.50;;;;;;5011932;28;81119;-65
2020/12/16 13:16:46;;;;;;;4.10;1.55;;;13.00;58.60;;;;;;5008159;28;80665;-66
2020/12/16 13:19:16;;;;;;;3.10;1.30;;;13.00;58.60;;;;;;5008092;28;81110;-67
2020/12/16 13:21:49;;;;;;;5.72;2.10;;;13.10;58.20;;;;;;5005237;28;82207;-66
2020/12/16 13:24:15;;;;;;;7.40;1.67;;;13.20;58.10;;;;;;4991494;28;83171;-66
2020/12/16 13:26:47;;;;;;;4.70;1.67;;;13.30;58.00;;;;;;5007968;28;81179;-65
2020/12/16 13:29:14;;;;;;;4.68;1.70;;;13.30;58.10;;;;;;5009702;28;81707;-66
2020/12/16 13:31:40;;;;;;;5.50;1.33;;;13.40;58.30;;;;;;4989136;28;82170;-66
2020/12/16 13:34:07;;;;;;;4.80;1.88;;;13.30;58.40;;;;;;4990539;28;81014;-67
2020/12/16 13:36:33;;;;;;;9.48;2.17;;;13.30;58.60;;;;;;4990667;28;81183;-66
2020/12/16 13:39:01;;;;;;;5.53;2.25;;;13.20;59.10;;;;;;5010305;28;80931;-69
2020/12/16 13:41:28;;;;;;;6.47;1.80;;;13.10;59.20;;;;;;4990140;28;82576;-68
2020/12/16 13:43:54;;;;;;;7.45;1.83;;;13.00;59.40;;;;;;5010456;28;81130;-68
2020/12/16 13:46:20;;;;;;;5.85;1.70;;;13.00;59.60;;;;;;5013532;28;81218;-68
2020/12/16 13:48:47;;;;;;;5.13;2.72;;;12.90;59.90;;;;;;5010660;28;81527;-69
2020/12/16 13:51:13;;;;;;;17.88;9.82;;;12.90;60.20;;;;;;5010154;28;81271;-69
2020/12/16 13:53:38;;;;;;;7.47;3.15;;;12.90;60.40;;;;;;5009159;28;80815;-69
2020/12/16 13:56:04;;;;;;;8.65;2.03;;;12.90;60.50;;;;;;5007589;28;81937;-68
2020/12/16 13:58:30;;;;;;;20.33;10.38;;;12.90;60.50;;;;;;4995151;28;81485;-68
2020/12/16 14:00:59;;;;;;;4.47;2.22;;;12.90;60.60;;;;;;5004574;28;84238;-70
2020/12/16 14:03:24;;;;;;;6.00;2.67;;;12.90;60.60;;;;;;5007304;28;84755;-68
2020/12/16 14:05:50;;;;;;;8.73;4.20;;;13.00;60.60;;;;;;5011866;28;80872;-67
2020/12/16 14:08:16;;;;;;;9.80;4.50;;;13.10;60.60;;;;;;5026146;28;80220;-66
2020/12/16 14:10:41;;;;;;;10.32;3.95;;;13.10;60.60;;;;;;5026740;28;80475;-69
2020/12/16 14:13:07;;;;;;;9.88;3.88;;;13.10;60.60;;;;;;5029382;28;80168;-67
2020/12/16 14:15:33;;;;;;;8.07;3.45;;;13.00;60.70;;;;;;5011254;28;83593;-67
2020/12/16 14:17:59;;;;;;;5.20;2.65;;;13.00;60.90;;;;;;5010845;28;81889;-67
2020/12/16 14:20:28;;;;;;;7.15;3.10;;;13.00;61.10;;;;;;5010433;28;82699;-67
2020/12/16 14:22:54;;;;;;;12.07;3.67;;;13.00;61.30;;;;;;5029542;28;80078;-67
2020/12/16 14:25:20;;;;;;;8.77;4.30;;;13.00;61.50;;;;;;5029118;28;80501;-67